Time;durP1;ratioP1;P1;durP2;ratioP2;P2;SDS_P1;SDS_P2;PMS_P1;PMS_P2;Temp;Humidity;BMP_temperature;BMP_pressure;BME280_temperature;BME280_humidity;BME280_pressure;Samples;Min_cycle;Max_cycle;Signal;HPM_P1;HPM_P2
2021/01/28 00:00:28;;;;;;;19.02;12.73;;;;;;;-3.93;72.93;95635.31;5069171;28;20048;-56
2021/01/28 00:02:56;;;;;;;16.38;10.75;;;;;;;-3.97;73.34;95631.47;5076168;28;20530;-55
2021/01/28 00:05:26;;;;;;;17.20;10.10;;;;;;;-3.91;73.18;95634.19;5059586;28;20052;-55
2021/01/28 00:07:54;;;;;;;14.48;9.30;;;;;;;-3.93;73.04;95619.88;5083324;28;20048;-55
2021/01/28 00:10:21;;;;;;;19.33;12.60;;;;;;;-3.94;72.35;95624.19;5078835;28;20063;-55
2021/01/28 00:12:49;;;;;;;16.70;10.40;;;;;;;-3.97;72.61;95626.31;5074946;28;20043;-55
2021/01/28 00:15:20;;;;;;;16.13;10.55;;;;;;;-4.02;72.57;95626.84;5059163;28;20048;-55
2021/01/28 00:17:48;;;;;;;17.48;9.93;;;;;;;-4.10;72.92;95626.91;5079372;28;20048;-55
2021/01/28 00:20:19;;;;;;;18.42;9.27;;;;;;;-4.10;72.89;95624.31;5076047;28;20083;-55
2021/01/28 00:22:46;;;;;;;16.80;10.25;;;;;;;-4.08;72.69;95622.38;5076456;28;20110;-55
2021/01/28 00:25:16;;;;;;;18.10;10.05;;;;;;;-4.10;72.65;95621.75;5052437;28;20063;-55
2021/01/28 00:27:44;;;;;;;17.70;8.15;;;;;;;-4.15;72.69;95616.31;5078369;28;20420;-55
2021/01/28 00:30:18;;;;;;;18.88;10.18;;;;;;;-4.18;72.83;95618.25;5068561;28;20048;-55
2021/01/28 00:32:46;;;;;;;14.10;9.05;;;;;;;-4.26;72.75;95614.94;5065661;28;20036;-56
2021/01/28 00:35:17;;;;;;;15.30;8.82;;;;;;;-4.30;72.41;95611.09;5068957;28;20058;-55
2021/01/28 00:37:44;;;;;;;14.30;8.55;;;;;;;-4.36;72.57;95617.72;5061284;28;20499;-55
2021/01/28 00:40:13;;;;;;;13.02;7.72;;;;;;;-4.42;72.31;95610.66;5037860;28;20070;-56
2021/01/28 00:42:40;;;;;;;12.27;8.00;;;;;;;-4.50;72.90;95611.50;5073513;28;20415;-56
2021/01/28 00:45:08;;;;;;;11.68;8.00;;;;;;;-4.60;72.76;95610.91;5076307;28;20048;-56
2021/01/28 00:47:36;;;;;;;13.30;7.88;;;;;;;-4.65;72.65;95604.50;5080824;28;20047;-55
2021/01/28 00:50:04;;;;;;;16.42;8.75;;;;;;;-4.72;72.50;95608.69;5042606;28;20063;-56
2021/01/28 00:52:32;;;;;;;13.93;7.53;;;;;;;-4.82;72.72;95598.63;5055063;28;20048;-55
2021/01/28 00:54:59;;;;;;;12.20;7.88;;;;;;;-4.85;73.05;95605.84;5068070;28;20043;-59
2021/01/28 00:57:29;;;;;;;16.05;8.98;;;;;;;-4.93;73.04;95611.84;5063871;28;20078;-55
2021/01/28 00:59:56;;;;;;;12.55;7.50;;;;;;;-5.08;73.43;95609.16;5061033;28;20059;-55
2021/01/28 01:02:25;;;;;;;11.70;7.00;;;;;;;-5.20;73.25;95613.03;5077307;28;20040;-56
2021/01/28 01:04:52;;;;;;;11.70;7.57;;;;;;;-5.35;73.54;95610.34;5053893;28;20059;-55
2021/01/28 01:07:20;;;;;;;12.73;7.60;;;;;;;-5.50;73.60;95603.28;5076025;28;20044;-55
2021/01/28 01:09:47;;;;;;;16.20;8.32;;;;;;;-5.57;74.05;95608.28;5080717;28;20048;-55
2021/01/28 01:12:15;;;;;;;14.63;8.02;;;;;;;-5.67;74.04;95599.94;5036758;28;20064;-55
2021/01/28 01:14:43;;;;;;;14.13;6.22;;;;;;;-5.72;74.03;95600.41;5054490;28;20036;-55
2021/01/28 01:17:11;;;;;;;14.75;7.53;;;;;;;-5.76;74.39;95595.75;5076880;28;20040;-55
2021/01/28 01:19:42;;;;;;;12.73;6.18;;;;;;;-5.79;73.98;95590.94;5073012;28;20048;-55
2021/01/28 01:22:17;;;;;;;11.40;6.97;;;;;;;-5.84;74.46;95591.44;5055744;28;20044;-55
2021/01/28 01:24:44;;;;;;;10.77;6.68;;;;;;;-5.91;74.27;95590.47;5069797;28;20048;-55
2021/01/28 01:27:12;;;;;;;10.23;6.82;;;;;;;-5.95;74.47;95587.41;5091672;28;20051;-55
2021/01/28 01:29:39;;;;;;;10.93;7.65;;;;;;;-6.01;74.51;95582.94;5072202;28;20056;-55
2021/01/28 01:32:16;;;;;;;11.07;6.40;;;;;;;-6.08;74.41;95584.53;5037981;28;20424;-55
2021/01/28 01:35:11;;;;;;;13.02;7.20;;;;;;;-6.11;74.58;95592.56;5045575;28;20051;-55
2021/01/28 01:37:41;;;;;;;9.45;6.45;;;;;;;-6.16;74.60;95584.53;5023767;28;20500;-55
2021/01/28 01:40:14;;;;;;;12.93;7.22;;;;;;;-6.26;75.10;95588.06;5024531;28;20120;-55
2021/01/28 01:42:48;;;;;;;10.82;6.60;;;;;;;-6.32;75.30;95588.69;5031959;28;20044;-56
2021/01/28 01:45:46;;;;;;;11.43;7.03;;;;;;;-6.39;75.70;95588.50;5022410;28;20049;-55
2021/01/28 01:48:17;;;;;;;14.77;7.78;;;;;;;-6.38;75.43;95573.94;5027712;28;20064;-55
2021/01/28 01:50:49;;;;;;;8.93;6.75;;;;;;;-6.40;75.41;95579.19;5033334;28;20045;-58
2021/01/28 01:53:24;;;;;;;13.18;7.13;;;;;;;-6.42;75.26;95577.75;5041235;28;20045;-55
2021/01/28 01:56:07;;;;;;;15.30;8.10;;;;;;;-6.47;75.30;95567.97;5035831;28;20048;-55
2021/01/28 01:58:59;;;;;;;11.60;6.95;;;;;;;-6.57;75.74;95557.84;5039458;28;20079;-55
2021/01/28 02:01:56;;;;;;;14.13;7.53;;;;;;;-6.64;75.90;95567.13;5053519;28;20053;-58
2021/01/28 02:04:46;;;;;;;13.07;7.57;;;;;;;-6.66;76.22;95563.91;5038724;28;20045;-55
2021/01/28 02:07:49;;;;;;;10.40;6.43;;;;;;;-6.73;76.30;95565.50;5061812;28;20044;-54
2021/01/28 02:10:53;;;;;;;8.98;5.63;;;;;;;-6.78;76.03;95567.72;5016659;28;21623;-55
2021/01/28 02:13:32;;;;;;;7.63;5.78;;;;;;;-6.89;76.29;95561.94;5037876;28;20053;-55
2021/01/28 02:16:26;;;;;;;10.38;5.90;;;;;;;-6.87;76.57;95572.03;5046535;28;20060;-54
2021/01/28 02:19:29;;;;;;;17.33;7.88;;;;;;;-6.92;76.15;95582.75;5040577;28;20063;-55
2021/01/28 02:22:00;;;;;;;11.60;6.65;;;;;;;-6.97;76.41;95582.44;5062817;28;20079;-55
2021/01/28 02:24:42;;;;;;;12.55;7.13;;;;;;;-7.05;76.63;95585.75;5036264;28;20061;-55
2021/01/28 02:27:13;;;;;;;12.93;6.93;;;;;;;-7.18;77.23;95577.69;5044495;28;20051;-55
2021/01/28 02:29:58;;;;;;;13.73;6.75;;;;;;;-7.24;77.30;95573.97;5028527;28;20055;-55
2021/01/28 02:32:27;;;;;;;10.55;7.05;;;;;;;-7.27;77.12;95569.97;5071029;28;20044;-54
2021/01/28 02:35:28;;;;;;;10.35;6.18;;;;;;;-7.32;77.23;95576.50;5067785;28;20064;-54
2021/01/28 02:38:00;;;;;;;9.02;6.60;;;;;;;-7.29;76.97;95563.38;5049452;28;20588;-54
2021/01/28 02:40:38;;;;;;;10.15;6.55;;;;;;;-7.29;76.58;95563.38;5075176;28;20052;-55
2021/01/28 02:43:28;;;;;;;11.13;6.20;;;;;;;-7.33;76.65;95556.97;5076220;28;20492;-54
2021/01/28 02:46:16;;;;;;;11.05;7.28;;;;;;;-7.33;77.15;95555.19;5071454;28;20079;-55
2021/01/28 02:48:50;;;;;;;10.48;6.47;;;;;;;-7.34;76.75;95553.56;5077719;28;20059;-55
2021/01/28 02:51:42;;;;;;;12.93;6.30;;;;;;;-7.35;76.87;95551.97;5065044;28;20044;-55
2021/01/28 02:54:17;;;;;;;12.68;7.65;;;;;;;-7.38;77.05;95544.56;5070084;28;20052;-55
2021/01/28 02:56:45;;;;;;;12.38;6.78;;;;;;;-7.40;76.80;95543.94;5080321;28;20469;-54
2021/01/28 02:59:13;;;;;;;11.98;6.35;;;;;;;-7.42;76.90;95551.78;5076330;28;20619;-54
2021/01/28 03:01:46;;;;;;;9.73;6.07;;;;;;;-7.55;76.85;95530.88;5077482;28;20051;-55
2021/01/28 03:04:16;;;;;;;11.38;7.53;;;;;;;-7.47;77.45;95548.06;5074604;28;21007;-54
2021/01/28 03:07:08;;;;;;;12.07;6.20;;;;;;;-7.52;77.41;95543.41;5050789;28;20526;-54
2021/01/28 03:09:36;;;;;;;10.05;6.80;;;;;;;-7.63;77.58;95541.88;5082557;28;20047;-55
2021/01/28 03:12:35;;;;;;;9.55;6.35;;;;;;;-7.60;77.54;95541.59;5050186;28;20198;-54
2021/01/28 03:15:09;;;;;;;12.02;5.63;;;;;;;-7.65;77.56;95535.31;5059678;28;20082;-56
2021/01/28 03:17:42;;;;;;;10.55;6.93;;;;;;;-7.70;77.63;95527.28;5079140;28;20052;-54
2021/01/28 03:20:13;;;;;;;13.13;7.93;;;;;;;-7.67;77.42;95526.97;5066683;28;20591;-55
2021/01/28 03:22:41;;;;;;;11.38;7.30;;;;;;;-7.67;77.51;95532.09;5079774;28;20040;-54
2021/01/28 03:25:27;;;;;;;9.37;6.67;;;;;;;-7.66;76.93;95537.09;5073998;28;20044;-54
2021/01/28 03:27:57;;;;;;;11.23;6.07;;;;;;;-7.72;77.19;95528.25;5080421;28;20036;-54
2021/01/28 03:30:29;;;;;;;13.57;7.55;;;;;;;-7.66;76.89;95534.53;5074919;28;20059;-54
2021/01/28 03:32:58;;;;;;;16.08;7.70;;;;;;;-7.66;76.71;95523.47;5062645;28;20075;-55
2021/01/28 03:35:28;;;;;;;15.10;8.50;;;;;;;-7.72;77.12;95525.69;5078450;28;20039;-55
2021/01/28 03:37:59;;;;;;;13.73;7.78;;;;;;;-7.75;77.20;95525.97;5061736;28;20044;-55
2021/01/28 03:40:29;;;;;;;17.92;9.00;;;;;;;-7.77;77.20;95533.00;5081514;28;20059;-55
2021/01/28 03:43:00;;;;;;;13.68;7.47;;;;;;;-7.87;77.86;95533.09;5067443;28;20051;-55
2021/01/28 03:45:28;;;;;;;11.93;6.43;;;;;;;-7.88;77.85;95535.81;5064028;28;20059;-55
2021/01/28 03:48:00;;;;;;;14.55;8.55;;;;;;;-7.91;77.73;95546.34;5081794;28;20047;-55
2021/01/28 03:50:51;;;;;;;13.68;6.93;;;;;;;-7.97;77.66;95534.16;5073531;28;20040;-58
2021/01/28 03:53:29;;;;;;;13.13;7.43;;;;;;;-7.95;77.67;95535.59;5068625;28;20051;-55
2021/01/28 03:56:01;;;;;;;13.10;8.25;;;;;;;-7.94;77.10;95536.44;5062184;28;20048;-55
2021/01/28 03:58:33;;;;;;;11.68;6.65;;;;;;;-7.94;77.36;95536.44;5062136;28;20044;-55
2021/01/28 04:01:19;;;;;;;;;;;;;;;-7.95;77.15;95527.94;5066195;28;20052;-55
2021/01/28 04:03:49;;;;;;;11.52;5.80;;;;;;;-7.95;76.90;95524.59;5071532;28;19927;-54
2021/01/28 04:06:36;;;;;;;16.15;6.78;;;;;;;-7.93;76.91;95522.66;5042489;28;20048;-55
2021/01/28 04:09:10;;;;;;;9.48;6.50;;;;;;;-8.00;77.18;95527.59;5078209;28;20048;-56
2021/01/28 04:11:37;;;;;;;12.45;6.45;;;;;;;-8.05;77.36;95520.34;5076249;28;20051;-56
2021/01/28 04:14:17;;;;;;;14.70;7.78;;;;;;;-8.01;76.76;95509.81;5055737;28;20510;-55
2021/01/28 04:16:46;;;;;;;13.52;7.78;;;;;;;-8.08;77.12;95515.53;5062165;28;20055;-55
2021/01/28 04:19:14;;;;;;;12.88;7.45;;;;;;;-8.06;77.57;95518.72;5080631;28;20040;-55
2021/01/28 04:21:45;;;;;;;11.10;6.55;;;;;;;-8.06;76.93;95511.03;5047525;28;20175;-55
2021/01/28 04:24:14;;;;;;;14.63;6.72;;;;;;;-8.09;77.23;95513.09;5057372;28;20055;-54
2021/01/28 04:26:46;;;;;;;8.73;5.82;;;;;;;-8.07;77.13;95512.03;5069876;28;20530;-55
2021/01/28 04:29:16;;;;;;;10.02;5.97;;;;;;;-8.15;77.29;95504.28;5076674;28;20040;-54
2021/01/28 04:31:43;;;;;;;13.65;6.28;;;;;;;-8.13;77.39;95507.50;5080154;28;20082;-54
2021/01/28 04:34:34;;;;;;;9.93;6.75;;;;;;;-8.11;78.13;95505.59;5069552;28;20064;-53
2021/01/28 04:37:09;;;;;;;11.88;6.72;;;;;;;-8.12;77.30;95505.75;5061369;28;20067;-54
2021/01/28 04:40:00;;;;;;;14.07;8.43;;;;;;;-8.15;77.78;95509.38;5077684;28;20044;-54
2021/01/28 04:42:44;;;;;;;13.63;7.15;;;;;;;-8.20;78.13;95511.59;5041000;28;20423;-54
2021/01/28 04:45:21;;;;;;;10.35;6.70;;;;;;;-8.23;78.04;95515.25;5038877;28;20036;-54
2021/01/28 04:48:03;;;;;;;11.68;7.50;;;;;;;-8.23;78.33;95514.44;5061452;28;20052;-54
2021/01/28 04:50:51;;;;;;;19.45;8.75;;;;;;;-8.25;78.05;95524.03;5062271;28;20036;-55
2021/01/28 04:53:34;;;;;;;17.55;8.75;;;;;;;-8.28;78.55;95514.91;5075097;28;20040;-56
2021/01/28 04:56:29;;;;;;;16.30;9.63;;;;;;;-8.23;78.62;95517.00;5077152;28;20052;-55
2021/01/28 04:59:23;;;;;;;21.38;10.55;;;;;;;-8.25;78.22;95516.34;5072608;28;20044;-58
2021/01/28 05:01:52;;;;;;;16.52;10.20;;;;;;;-8.26;77.86;95513.00;5076448;28;20044;-56
2021/01/28 05:04:50;;;;;;;20.55;9.07;;;;;;;-8.24;77.62;95510.28;5070904;28;20082;-55
2021/01/28 05:07:47;;;;;;;17.58;9.80;;;;;;;-8.24;78.14;95512.84;5026352;28;20061;-55
2021/01/28 05:10:49;;;;;;;15.55;8.35;;;;;;;-8.35;76.93;95504.47;5032634;28;20063;-56
2021/01/28 05:13:42;;;;;;;14.93;8.55;;;;;;;-8.47;77.64;95502.28;5040471;28;20055;-56
2021/01/28 05:16:41;;;;;;;12.68;8.45;;;;;;;-8.54;78.27;95502.88;5077266;28;20051;-55
2021/01/28 05:19:48;;;;;;;15.07;9.32;;;;;;;-8.69;79.19;95507.72;5062882;28;20048;-55
2021/01/28 05:22:38;;;;;;;14.37;8.87;;;;;;;-8.63;79.09;95505.50;5077123;28;20040;-55
2021/01/28 05:25:37;;;;;;;15.63;8.85;;;;;;;-8.60;79.01;95495.78;5072082;28;20308;-56
2021/01/28 05:28:35;;;;;;;14.68;9.48;;;;;;;-8.55;79.60;95501.28;5074192;28;20048;-56
2021/01/28 05:31:32;;;;;;;16.88;9.45;;;;;;;-8.57;79.22;95504.94;5054852;28;20405;-60
2021/01/28 05:34:23;;;;;;;21.08;11.55;;;;;;;-8.53;79.03;95496.00;5055551;28;20438;-56
2021/01/28 05:37:25;;;;;;;24.17;13.02;;;;;;;-8.51;78.75;95500.03;5032490;28;20061;-55
2021/01/28 05:40:27;;;;;;;23.42;14.57;;;;;;;-8.54;78.96;95507.19;5029558;28;20055;-56
2021/01/28 05:43:25;;;;;;;26.83;13.95;;;;;;;-8.51;78.84;95514.56;5050386;28;20496;-56
2021/01/28 05:46:27;;;;;;;31.17;14.90;;;;;;;-8.46;78.94;95512.38;5039717;28;20044;-54
2021/01/28 05:49:21;;;;;;;32.67;15.82;;;;;;;-8.51;78.54;95510.28;5042559;28;20051;-54
2021/01/28 05:51:49;;;;;;;36.60;21.02;;;;;;;-8.51;78.57;95509.47;5057744;28;20040;-56
2021/01/28 05:54:43;;;;;;;36.22;19.58;;;;;;;-8.65;78.53;95492.88;5027626;28;21010;-55
2021/01/28 05:58:02;;;;;;;33.88;19.05;;;;;;;-8.55;78.57;95495.34;5060232;28;20045;-56
2021/01/28 06:00:53;;;;;;;30.80;16.75;;;;;;;-8.51;78.20;95492.38;5021939;28;20032;-56
2021/01/28 06:03:56;;;;;;;34.40;17.70;;;;;;;-8.54;77.99;95484.16;5013507;28;20052;-56
2021/01/28 06:07:20;;;;;;;37.50;22.08;;;;;;;-8.67;78.44;95480.22;4975367;28;20051;-56
2021/01/28 06:10:47;;;;;;;34.50;20.20;;;;;;;-8.71;78.60;95481.50;5025905;28;20052;-57
2021/01/28 06:13:52;;;;;;;33.22;18.60;;;;;;;-8.70;78.18;95484.84;5003790;28;20074;-60
2021/01/28 06:17:02;;;;;;;30.75;20.52;;;;;;;-8.67;77.84;95482.00;5050350;28;20060;-57
2021/01/28 06:20:19;;;;;;;33.35;20.20;;;;;;;-8.65;77.78;95475.78;5035769;28;20052;-56
2021/01/28 06:23:15;;;;;;;30.20;20.08;;;;;;;-8.60;77.91;95474.53;5025272;28;20059;-56
2021/01/28 06:26:19;;;;;;;33.92;19.85;;;;;;;-8.56;77.96;95480.97;5044143;28;20064;-55
2021/01/28 06:29:35;;;;;;;32.85;18.67;;;;;;;-8.55;77.70;95472.31;5017023;28;20036;-55
2021/01/28 06:32:15;;;;;;;37.15;17.73;;;;;;;-8.62;77.91;95473.88;5052678;28;20048;-55
2021/01/28 06:35:34;;;;;;;32.75;15.77;;;;;;;-8.60;78.23;95471.97;5055678;28;20048;-60
2021/01/28 06:38:36;;;;;;;35.58;17.65;;;;;;;-8.59;77.62;95473.59;5025839;28;20076;-56
2021/01/28 06:41:45;;;;;;;33.03;18.60;;;;;;;-8.68;77.96;95486.31;4988731;28;20645;-55
2021/01/28 06:44:36;;;;;;;23.92;14.15;;;;;;;-8.70;77.79;95483.09;5026033;28;20067;-54
2021/01/28 06:47:35;;;;;;;23.42;13.57;;;;;;;-8.77;78.23;95479.50;5056526;28;20075;-58
2021/01/28 06:50:40;;;;;;;23.40;12.93;;;;;;;-8.74;78.61;95483.53;5034679;28;20056;-54
2021/01/28 06:53:23;;;;;;;30.77;18.80;;;;;;;-8.75;78.49;95487.03;5061560;28;20048;-54
2021/01/28 06:56:47;;;;;;;38.25;21.58;;;;;;;-8.75;78.47;95503.16;5034268;28;20748;-56
2021/01/28 07:00:03;;;;;;;41.78;22.80;;;;;;;-8.71;78.56;95489.16;5028366;28;20052;-55
2021/01/28 07:02:57;;;;;;;45.55;24.20;;;;;;;-8.67;78.73;95493.00;5016705;28;20063;-55
2021/01/28 07:05:56;;;;;;;41.97;23.45;;;;;;;-8.53;78.70;95491.72;5033629;28;20481;-55
2021/01/28 07:08:30;;;;;;;47.55;23.48;;;;;;;-8.40;78.52;95487.94;5021619;28;20044;-56
2021/01/28 07:11:42;;;;;;;53.00;27.95;;;;;;;-8.27;78.42;95490.94;5012822;28;20060;-55
2021/01/28 07:14:40;;;;;;;47.58;24.95;;;;;;;-8.16;78.71;95481.41;5035814;28;20519;-54
2021/01/28 07:17:36;;;;;;;35.42;18.95;;;;;;;-8.10;78.54;95486.72;5028163;28;20049;-58
2021/01/28 07:20:34;;;;;;;39.25;20.13;;;;;;;-8.06;78.16;95484.66;5032353;28;20048;-56
2021/01/28 07:23:20;;;;;;;23.98;16.02;;;;;;;-7.97;78.30;95488.88;5015186;28;20052;-55
2021/01/28 07:25:50;;;;;;;29.85;17.33;;;;;;;-7.92;78.08;95483.28;5018514;28;20071;-54
2021/01/28 07:28:17;;;;;;;39.90;22.35;;;;;;;-7.76;78.01;95472.38;5024756;28;20051;-55
2021/01/28 07:30:46;;;;;;;30.08;18.20;;;;;;;-7.65;77.64;95474.66;5070530;28;20067;-55
2021/01/28 07:33:23;;;;;;;34.95;21.27;;;;;;;-7.58;77.60;95454.38;5054119;28;20048;-55
2021/01/28 07:36:11;;;;;;;32.53;20.23;;;;;;;-7.54;76.75;95447.16;5076365;28;20040;-55
2021/01/28 07:38:59;;;;;;;30.38;19.55;;;;;;;-7.47;76.20;95443.84;5073181;28;20055;-55
2021/01/28 07:42:09;;;;;;;37.53;21.17;;;;;;;-7.37;76.44;95441.13;5082796;28;20048;-55
2021/01/28 07:44:57;;;;;;;30.27;16.63;;;;;;;-7.30;75.15;95437.00;5074793;28;20284;-55
2021/01/28 07:47:48;;;;;;;25.70;15.43;;;;;;;-7.23;74.51;95442.31;5049655;28;20044;-55
2021/01/28 07:50:33;;;;;;;25.45;15.30;;;;;;;-7.16;74.44;95433.03;5067828;28;20044;-55
2021/01/28 07:53:28;;;;;;;25.33;13.65;;;;;;;-7.09;72.25;95437.53;5071287;28;20055;-54
2021/01/28 07:55:55;;;;;;;28.10;13.48;;;;;;;-7.05;72.72;95433.69;5047391;28;20055;-55
2021/01/28 07:58:31;;;;;;;29.02;14.18;;;;;;;-6.99;73.04;95430.50;5069664;28;20044;-56
2021/01/28 08:01:09;;;;;;;26.52;14.25;;;;;;;-6.89;72.73;95432.94;5064923;28;20049;-55
2021/01/28 08:03:58;;;;;;;20.15;12.32;;;;;;;-6.91;72.79;95415.13;5075581;28;20051;-57
2021/01/28 08:06:27;;;;;;;26.63;15.35;;;;;;;-6.70;71.91;95432.59;5073975;28;20051;-55
2021/01/28 08:09:09;;;;;;;27.63;14.90;;;;;;;-6.61;71.69;95423.16;5073056;28;20048;-56
2021/01/28 08:11:37;;;;;;;32.88;16.50;;;;;;;-6.58;71.86;95420.25;5069207;28;20055;-56
2021/01/28 08:14:11;;;;;;;31.17;19.17;;;;;;;-6.47;72.38;95419.13;5068573;28;20054;-55
2021/01/28 08:16:38;;;;;;;33.33;20.80;;;;;;;-6.41;71.53;95418.50;5071072;28;20052;-55
2021/01/28 08:19:13;;;;;;;36.63;20.38;;;;;;;-6.39;72.36;95405.50;5069382;28;20059;-55
2021/01/28 08:21:42;;;;;;;36.75;22.88;;;;;;;-6.30;71.28;95408.88;5076685;28;20052;-56
2021/01/28 08:24:20;;;;;;;40.35;23.33;;;;;;;-6.22;71.96;95422.50;5076104;28;20046;-56
2021/01/28 08:26:48;;;;;;;40.83;23.45;;;;;;;-6.13;72.31;95415.56;5052940;28;20055;-56
2021/01/28 08:29:21;;;;;;;44.90;22.45;;;;;;;-6.06;71.63;95415.72;5068322;28;20052;-58
2021/01/28 08:31:54;;;;;;;42.33;22.70;;;;;;;-5.93;72.18;95417.75;5050470;28;20060;-57
2021/01/28 08:34:27;;;;;;;43.03;23.10;;;;;;;-5.75;70.81;95415.75;5034577;28;20045;-57
2021/01/28 08:37:02;;;;;;;40.38;24.85;;;;;;;-5.58;72.24;95419.06;5037291;28;20044;-58
2021/01/28 08:39:32;;;;;;;40.17;21.33;;;;;;;-5.36;70.67;95418.50;5033758;28;20076;-57
2021/01/28 08:42:06;;;;;;;31.42;20.02;;;;;;;-5.21;69.22;95416.00;5049035;28;20053;-58
2021/01/28 08:44:35;;;;;;;31.38;19.67;;;;;;;-5.10;70.29;95413.84;5021324;28;20041;-61
2021/01/28 08:47:23;;;;;;;34.13;21.80;;;;;;;-4.95;71.00;95416.50;5033183;28;20083;-56
2021/01/28 08:50:06;;;;;;;37.00;20.45;;;;;;;-4.81;71.35;95414.16;5030368;28;20052;-57
2021/01/28 08:52:35;;;;;;;36.75;20.52;;;;;;;-4.65;68.62;95401.19;5046452;28;20404;-57
2021/01/28 08:55:22;;;;;;;27.55;17.60;;;;;;;-4.55;68.87;95403.50;5048238;28;20036;-58
2021/01/28 08:57:52;;;;;;;36.17;19.45;;;;;;;-4.45;68.51;95400.69;5023944;28;20048;-57
2021/01/28 09:00:23;;;;;;;29.33;20.35;;;;;;;-4.33;67.42;95398.50;4999338;28;20048;-58
2021/01/28 09:02:54;;;;;;;30.30;20.15;;;;;;;-4.27;66.90;95400.38;4996151;28;20052;-58
2021/01/28 09:05:27;;;;;;;28.30;17.55;;;;;;;-4.19;66.81;95394.34;5026752;28;20052;-58
2021/01/28 09:07:58;;;;;;;30.65;18.55;;;;;;;-4.14;66.46;95392.03;5044347;28;20423;-57
2021/01/28 09:10:31;;;;;;;29.42;17.55;;;;;;;-4.05;66.43;95398.72;5031418;28;20051;-56
2021/01/28 09:13:23;;;;;;;27.77;18.63;;;;;;;-3.91;65.48;95393.75;5048136;28;20083;-57
2021/01/28 09:16:18;;;;;;;25.65;17.13;;;;;;;-3.81;64.79;95391.69;5014809;28;20041;-56
2021/01/28 09:18:48;;;;;;;29.08;16.73;;;;;;;-3.72;64.55;95377.72;5049716;28;20083;-57
2021/01/28 09:21:24;;;;;;;27.20;17.27;;;;;;;-3.68;64.52;95380.75;5049561;28;20055;-59
2021/01/28 09:24:20;;;;;;;33.92;17.35;;;;;;;-3.59;64.98;95377.09;5049146;28;20432;-57
2021/01/28 09:27:13;;;;;;;27.50;16.98;;;;;;;-3.49;64.29;95363.13;5017284;28;20060;-56
2021/01/28 09:29:42;;;;;;;35.28;19.65;;;;;;;-3.35;63.73;95370.03;5052903;28;20143;-56
2021/01/28 09:32:26;;;;;;;35.13;18.00;;;;;;;-3.28;64.10;95370.13;5034576;28;20045;-59
2021/01/28 09:35:08;;;;;;;31.88;19.98;;;;;;;-3.30;64.10;95374.66;5031635;28;20059;-56
2021/01/28 09:37:37;;;;;;;32.67;19.48;;;;;;;-3.26;64.74;95366.38;5052209;28;20059;-57
2021/01/28 09:40:29;;;;;;;33.78;21.08;;;;;;;-3.18;64.25;95365.44;5054132;28;20047;-56
2021/01/28 09:43:29;;;;;;;31.27;18.75;;;;;;;-3.06;64.06;95368.34;5030772;28;20041;-57
2021/01/28 09:46:19;;;;;;;31.25;20.52;;;;;;;-3.01;62.62;95357.47;5045347;28;20051;-58
2021/01/28 09:48:48;;;;;;;34.47;19.23;;;;;;;-2.97;62.75;95358.69;5028481;28;20052;-57
2021/01/28 09:51:36;;;;;;;32.28;20.05;;;;;;;-2.90;63.00;95357.00;5026596;28;20048;-57
2021/01/28 09:54:20;;;;;;;26.08;17.23;;;;;;;-2.90;62.58;95346.69;5022572;28;20053;-62
2021/01/28 09:56:50;;;;;;;31.73;19.67;;;;;;;-2.84;61.72;95347.72;5048828;28;20048;-58
2021/01/28 09:59:17;;;;;;;38.05;19.52;;;;;;;-2.81;62.33;95337.00;5043333;28;20059;-58
2021/01/28 10:01:46;;;;;;;33.00;19.10;;;;;;;-2.82;62.34;95349.13;5046683;28;20049;-57
2021/01/28 10:04:14;;;;;;;30.88;19.70;;;;;;;-2.87;62.58;95332.59;5028041;28;20153;-59
2021/01/28 10:06:41;;;;;;;38.10;22.98;;;;;;;-2.79;62.61;95329.88;5008523;28;20060;-56
2021/01/28 10:09:09;;;;;;;33.42;22.63;;;;;;;-2.77;62.90;95309.84;5025498;28;20048;-55
2021/01/28 10:11:38;;;;;;;33.88;23.90;;;;;;;-2.73;63.21;95300.75;5029544;28;20053;-57
2021/01/28 10:14:06;;;;;;;30.27;21.25;;;;;;;-2.52;62.57;95315.38;5030328;28;20045;-56
2021/01/28 10:16:33;;;;;;;25.05;16.38;;;;;;;-2.47;62.51;95302.72;5027333;28;20044;-57
2021/01/28 10:19:04;;;;;;;26.67;17.08;;;;;;;-2.49;62.32;95296.94;5030853;28;20056;-56
2021/01/28 10:21:32;;;;;;;27.50;16.92;;;;;;;-2.50;62.46;95297.91;5016840;28;20048;-55
2021/01/28 10:23:59;;;;;;;20.67;16.67;;;;;;;-2.51;62.37;95292.94;5010575;28;20060;-56
2021/01/28 10:26:27;;;;;;;26.73;15.63;;;;;;;-2.45;62.05;95287.00;5055371;28;20049;-56
2021/01/28 10:28:55;;;;;;;32.88;18.65;;;;;;;-2.48;62.39;95277.88;5054955;28;20060;-57
2021/01/28 10:31:22;;;;;;;24.40;16.65;;;;;;;-2.50;63.34;95268.72;5058556;28;20044;-56
2021/01/28 10:33:51;;;;;;;25.50;16.45;;;;;;;-2.52;62.46;95261.13;5048596;28;20055;-62
2021/01/28 10:36:19;;;;;;;27.20;16.92;;;;;;;-2.52;62.80;95271.47;5073635;28;20048;-56
2021/01/28 10:38:46;;;;;;;33.50;17.48;;;;;;;-2.52;63.55;95263.72;5064360;28;20050;-56
2021/01/28 10:41:14;;;;;;;28.63;17.20;;;;;;;-2.56;63.16;95262.53;5065436;28;20138;-57
2021/01/28 10:43:41;;;;;;;26.13;17.45;;;;;;;-2.53;62.92;95264.75;5065101;28;20056;-56
2021/01/28 10:46:08;;;;;;;29.42;17.52;;;;;;;-2.58;63.75;95256.75;5049969;28;20279;-56
2021/01/28 10:48:36;;;;;;;23.77;15.35;;;;;;;-2.55;62.86;95251.22;5069292;28;20065;-56
2021/01/28 10:51:04;;;;;;;26.08;17.27;;;;;;;-2.56;63.61;95253.97;5084258;28;20060;-55
2021/01/28 10:53:33;;;;;;;27.73;16.30;;;;;;;-2.56;63.46;95238.47;5061397;28;20044;-57
2021/01/28 10:56:01;;;;;;;33.85;18.73;;;;;;;-2.51;64.07;95236.91;5068673;28;20055;-57
2021/01/28 10:58:28;;;;;;;29.48;17.95;;;;;;;-2.49;64.30;95206.53;5070086;28;20056;-57
2021/01/28 11:00:56;;;;;;;29.88;19.15;;;;;;;-2.32;63.45;95206.22;5067682;28;20063;-60
2021/01/28 11:03:24;;;;;;;23.63;17.13;;;;;;;-2.36;62.89;95192.09;5062861;28;20044;-57
2021/01/28 11:05:51;;;;;;;24.95;17.63;;;;;;;-2.32;62.29;95201.06;5067561;28;20071;-57
2021/01/28 11:08:18;;;;;;;33.47;18.55;;;;;;;-2.39;63.16;95198.44;5064416;28;20539;-57
2021/01/28 11:10:46;;;;;;;29.05;18.05;;;;;;;-2.40;63.71;95191.69;5068653;28;20051;-57
2021/01/28 11:13:13;;;;;;;42.50;20.90;;;;;;;-2.38;63.15;95191.47;5068724;28;20492;-56
2021/01/28 11:15:40;;;;;;;32.63;19.38;;;;;;;-2.44;63.49;95181.94;5068776;28;20055;-56
2021/01/28 11:18:10;;;;;;;28.55;18.30;;;;;;;-2.32;63.98;95198.47;5071285;28;20126;-57
2021/01/28 11:20:38;;;;;;;30.88;18.02;;;;;;;-2.22;64.11;95183.41;5045027;28;20078;-57
2021/01/28 11:23:05;;;;;;;30.20;19.55;;;;;;;-2.14;63.33;95177.28;5062788;28;20052;-57
2021/01/28 11:25:34;;;;;;;41.95;20.42;;;;;;;-2.09;63.03;95171.53;5069661;28;20075;-57
2021/01/28 11:28:01;;;;;;;35.85;20.33;;;;;;;-2.20;63.37;95160.75;5068289;28;20067;-57
2021/01/28 11:30:30;;;;;;;31.55;21.33;;;;;;;-2.09;63.21;95161.19;5061049;28;20091;-56
2021/01/28 11:32:58;;;;;;;29.42;21.08;;;;;;;-2.03;63.32;95155.25;5017354;28;20071;-57
2021/01/28 11:35:30;;;;;;;27.25;19.13;;;;;;;-1.95;63.31;95156.84;5035170;28;20036;-57
2021/01/28 11:38:02;;;;;;;30.05;18.65;;;;;;;-1.79;63.02;95150.53;5029074;28;22073;-58
2021/01/28 11:40:30;;;;;;;32.85;19.30;;;;;;;-1.61;62.75;95144.78;5055592;28;20044;-57
2021/01/28 11:43:00;;;;;;;42.45;24.52;;;;;;;-1.42;62.14;95153.53;5047607;28;22266;-56
2021/01/28 11:45:29;;;;;;;42.25;26.25;;;;;;;-1.40;61.06;95146.34;5042052;28;21029;-57
2021/01/28 11:47:59;;;;;;;41.47;24.83;;;;;;;-1.45;61.91;95141.78;5030846;28;20540;-58
2021/01/28 11:50:28;;;;;;;33.25;21.48;;;;;;;-1.45;61.74;95136.59;5039562;28;20075;-58
2021/01/28 11:52:55;;;;;;;43.30;25.00;;;;;;;-1.40;61.45;95134.25;5033029;28;20048;-58
2021/01/28 11:55:25;;;;;;;44.08;27.05;;;;;;;-1.48;62.11;95110.34;5037163;28;20048;-58
2021/01/28 11:57:53;;;;;;;36.13;21.88;;;;;;;-1.42;62.85;95118.13;5042794;28;20523;-58
2021/01/28 12:00:21;;;;;;;33.75;18.15;;;;;;;-1.28;62.68;95118.88;5045334;28;20045;-58
2021/01/28 12:02:50;;;;;;;23.73;14.82;;;;;;;-1.20;62.50;95111.94;5016179;28;20044;-56
2021/01/28 12:05:24;;;;;;;24.15;15.02;;;;;;;-1.15;62.19;95105.16;5047788;28;20054;-57
2021/01/28 12:07:54;;;;;;;24.35;15.60;;;;;;;-1.09;62.08;95106.13;5023922;28;20071;-59
2021/01/28 12:10:24;;;;;;;50.00;23.67;;;;;;;-1.11;62.37;95101.16;5056947;28;20060;-58
2021/01/28 12:12:51;;;;;;;44.80;23.60;;;;;;;-1.02;62.47;95093.97;5046832;28;20397;-58
2021/01/28 12:15:20;;;;;;;34.83;18.58;;;;;;;-0.94;62.58;95085.19;5061142;28;20425;-58